Time;durP1;ratioP1;P1;durP2;ratioP2;P2;SDS_P1;SDS_P2;PMS_P1;PMS_P2;Temp;Humidity;BMP_temperature;BMP_pressure;BME280_temperature;BME280_humidity;BME280_pressure;Samples;Min_cycle;Max_cycle;Signal;HPM_P1;HPM_P2
2021/06/22 00:00:21;;;;;;;0.10;0.10;;;20.30;70.20;;;;;;4224608;28;20048;-52
2021/06/22 00:02:43;;;;;;;0.00;0.00;;;20.30;70.30;;;;;;4224227;28;20059;-52
2021/06/22 00:05:06;;;;;;;0.00;0.00;;;20.30;70.30;;;;;;4224826;28;20044;-52
2021/06/22 00:07:28;;;;;;;0.00;0.00;;;20.30;70.40;;;;;;4224553;28;20052;-54
2021/06/22 00:09:51;;;;;;;0.00;0.00;;;20.30;70.40;;;;;;4222706;28;20043;-53
2021/06/22 00:12:13;;;;;;;0.10;0.10;;;20.30;70.40;;;;;;4224369;28;20054;-54
2021/06/22 00:14:37;;;;;;;0.00;0.00;;;20.30;70.40;;;;;;4224301;28;20052;-51
2021/06/22 00:17:03;;;;;;;0.25;0.25;;;20.30;70.40;;;;;;4224296;28;20436;-53
2021/06/22 00:19:25;;;;;;;0.00;0.00;;;20.20;70.40;;;;;;4224647;28;20055;-50
2021/06/22 00:21:48;;;;;;;0.00;0.00;;;20.30;70.40;;;;;;4224391;28;20201;-53
2021/06/22 00:24:10;;;;;;;0.28;0.28;;;20.20;70.40;;;;;;4224229;28;20082;-52
2021/06/22 00:26:32;;;;;;;0.35;0.35;;;20.20;70.50;;;;;;4224299;28;20101;-51
2021/06/22 00:28:54;;;;;;;0.63;0.35;;;20.20;70.50;;;;;;4223852;28;20151;-52
2021/06/22 00:31:18;;;;;;;0.00;0.00;;;20.20;70.50;;;;;;4223854;28;20557;-53
2021/06/22 00:33:40;;;;;;;0.00;0.00;;;20.20;70.60;;;;;;4224282;28;20409;-52
2021/06/22 00:36:02;;;;;;;0.00;0.00;;;20.20;70.60;;;;;;4223935;28;20078;-50
2021/06/22 00:38:24;;;;;;;0.00;0.00;;;20.20;70.60;;;;;;4226052;27;20118;-52
2021/06/22 00:40:47;;;;;;;0.00;0.00;;;20.20;70.70;;;;;;4227649;27;20421;-53
2021/06/22 00:43:09;;;;;;;0.00;0.00;;;20.20;70.70;;;;;;4225546;27;20079;-50
2021/06/22 00:45:33;;;;;;;0.00;0.00;;;20.20;70.70;;;;;;4227519;27;20062;-53
2021/06/22 00:48:01;;;;;;;0.00;0.00;;;20.20;70.70;;;;;;4226638;27;20052;-52
2021/06/22 00:50:26;;;;;;;0.00;0.00;;;20.10;70.80;;;;;;4227124;28;20047;-53
2021/06/22 00:52:53;;;;;;;0.00;0.00;;;20.10;70.80;;;;;;4225429;28;20062;-52
2021/06/22 00:55:29;;;;;;;0.00;0.00;;;20.10;70.80;;;;;;4225687;27;20067;-53
2021/06/22 00:58:11;;;;;;;0.00;0.00;;;20.10;70.80;;;;;;4225376;28;20929;-53
2021/06/22 01:00:36;;;;;;;0.15;0.15;;;20.10;70.90;;;;;;4226774;27;20054;-50
2021/06/22 01:03:01;;;;;;;0.00;0.00;;;20.10;70.90;;;;;;4225411;28;20557;-54
2021/06/22 01:05:34;;;;;;;0.13;0.13;;;20.10;71.00;;;;;;4225171;27;20071;-53
2021/06/22 01:07:58;;;;;;;0.00;0.00;;;20.10;71.00;;;;;;4225206;28;20477;-53
2021/06/22 01:10:21;;;;;;;0.00;0.00;;;20.10;71.00;;;;;;4227155;27;20043;-54
2021/06/22 01:12:43;;;;;;;0.00;0.00;;;20.10;71.10;;;;;;4226493;27;20829;-52
2021/06/22 01:15:13;;;;;;;2.72;0.55;;;20.10;71.00;;;;;;4225486;28;20143;-52
2021/06/22 01:17:35;;;;;;;0.03;0.03;;;20.10;71.00;;;;;;4223070;28;20081;-51
2021/06/22 01:20:01;;;;;;;0.00;0.00;;;20.10;71.00;;;;;;4225442;28;20529;-52
2021/06/22 01:22:32;;;;;;;0.00;0.00;;;20.10;71.00;;;;;;4226381;28;20047;-51
2021/06/22 01:24:54;;;;;;;0.00;0.00;;;20.10;71.10;;;;;;4225328;28;20102;-53
2021/06/22 01:27:20;;;;;;;0.20;0.20;;;20.10;71.10;;;;;;4226911;28;20069;-51
2021/06/22 01:29:42;;;;;;;0.00;0.00;;;20.10;71.10;;;;;;4226707;27;20042;-49
2021/06/22 01:32:07;;;;;;;0.00;0.00;;;20.10;71.00;;;;;;4226353;27;20489;-53
2021/06/22 01:34:35;;;;;;;0.00;0.00;;;20.10;71.00;;;;;;4224944;28;20043;-51
2021/06/22 01:36:59;;;;;;;0.00;0.00;;;20.10;71.00;;;;;;4225811;28;20056;-52
2021/06/22 01:39:33;;;;;;;0.00;0.00;;;20.10;71.10;;;;;;4224467;28;20044;-52
2021/06/22 01:41:58;;;;;;;0.10;0.10;;;20.10;71.10;;;;;;4226312;27;20048;-52
2021/06/22 01:44:20;;;;;;;0.00;0.00;;;20.10;71.10;;;;;;4225142;28;20801;-53
2021/06/22 01:46:42;;;;;;;0.00;0.00;;;20.00;71.00;;;;;;4225640;28;20204;-50
2021/06/22 01:49:05;;;;;;;0.00;0.00;;;20.00;71.00;;;;;;4225430;28;20081;-53
2021/06/22 01:51:32;;;;;;;0.32;0.32;;;20.00;70.90;;;;;;4224444;28;20055;-53
2021/06/22 01:53:57;;;;;;;1.85;1.00;;;20.00;70.90;;;;;;4224664;28;20054;-54
2021/06/22 01:56:23;;;;;;;0.00;0.00;;;20.00;70.90;;;;;;4224991;28;20048;-54
2021/06/22 01:58:45;;;;;;;0.00;0.00;;;20.00;70.90;;;;;;4224365;28;20048;-53
2021/06/22 02:01:26;;;;;;;0.00;0.00;;;20.00;70.90;;;;;;4209365;28;20142;-54
2021/06/22 02:03:58;;;;;;;0.00;0.00;;;20.00;70.80;;;;;;4208573;28;20050;-53
2021/06/22 02:06:21;;;;;;;0.00;0.00;;;20.00;70.80;;;;;;4221989;27;20047;-54
2021/06/22 02:09:03;;;;;;;0.00;0.00;;;20.00;70.70;;;;;;4225095;27;20075;-54
2021/06/22 02:11:26;;;;;;;0.30;0.30;;;20.00;70.70;;;;;;4207722;28;20051;-51
2021/06/22 02:13:49;;;;;;;0.00;0.00;;;20.00;70.60;;;;;;4208831;28;20155;-50
2021/06/22 02:16:18;;;;;;;0.00;0.00;;;20.00;70.60;;;;;;4208846;28;20551;-52
2021/06/22 02:18:42;;;;;;;0.00;0.00;;;20.00;70.60;;;;;;4207227;28;20059;-51
2021/06/22 02:21:06;;;;;;;0.00;0.00;;;19.90;70.60;;;;;;4221410;27;20124;-51
2021/06/22 02:23:28;;;;;;;0.00;0.00;;;19.90;70.50;;;;;;4224537;27;20059;-53
2021/06/22 02:25:50;;;;;;;0.00;0.00;;;20.00;70.50;;;;;;4224292;28;20714;-50
2021/06/22 02:28:18;;;;;;;0.08;0.08;;;19.90;70.40;;;;;;4223954;28;20052;-50
2021/06/22 02:30:43;;;;;;;0.90;0.55;;;19.90;70.40;;;;;;4225172;28;20120;-51
2021/06/22 02:33:07;;;;;;;0.00;0.00;;;19.90;71.20;;;;;;4224024;28;20563;-49
2021/06/22 02:35:30;;;;;;;0.03;0.03;;;19.90;70.20;;;;;;4225532;28;20047;-51
2021/06/22 02:37:59;;;;;;;0.00;0.00;;;19.90;70.20;;;;;;4223435;28;20589;-48
2021/06/22 02:40:26;;;;;;;0.40;0.40;;;19.90;70.10;;;;;;4224167;28;20078;-52
2021/06/22 02:42:51;;;;;;;0.00;0.00;;;19.90;70.10;;;;;;4223848;28;20047;-55
2021/06/22 02:45:16;;;;;;;0.00;0.00;;;19.90;70.10;;;;;;4224232;28;20058;-53
2021/06/22 02:47:38;;;;;;;0.00;0.00;;;19.90;70.10;;;;;;4224792;27;20051;-50
2021/06/22 02:50:00;;;;;;;0.38;0.38;;;19.90;70.10;;;;;;4223874;28;20058;-50
2021/06/22 02:52:24;;;;;;;0.00;0.00;;;19.90;71.00;;;;;;4223712;28;20126;-55
2021/06/22 02:54:46;;;;;;;0.00;0.00;;;19.90;70.10;;;;;;4225110;27;20078;-51
2021/06/22 02:57:10;;;;;;;0.00;0.00;;;19.90;70.00;;;;;;4225366;28;20044;-52
2021/06/22 02:59:33;;;;;;;0.00;0.00;;;19.90;70.00;;;;;;4225170;27;20108;-54
2021/06/22 03:01:57;;;;;;;0.00;0.00;;;19.90;70.00;;;;;;4224602;27;20050;-52
2021/06/22 03:04:20;;;;;;;0.00;0.00;;;19.90;69.90;;;;;;4223680;28;20063;-52
2021/06/22 03:06:42;;;;;;;0.00;0.00;;;19.80;69.90;;;;;;4224768;27;20058;-51
2021/06/22 03:09:12;;;;;;;0.00;0.00;;;19.90;70.00;;;;;;4224548;27;20386;-50
2021/06/22 03:11:41;;;;;;;0.00;0.00;;;19.80;69.90;;;;;;4224354;27;20048;-51
2021/06/22 03:14:06;;;;;;;0.00;0.00;;;19.80;69.90;;;;;;4223533;28;20050;-50
2021/06/22 03:16:32;;;;;;;0.82;0.82;;;19.80;69.90;;;;;;4223412;28;20165;-48
2021/06/22 03:18:55;;;;;;;0.40;0.40;;;19.80;69.90;;;;;;4224909;28;20508;-49
2021/06/22 03:21:20;;;;;;;0.43;0.43;;;19.80;69.90;;;;;;4223181;28;20489;-53
2021/06/22 03:23:43;;;;;;;0.00;0.00;;;19.70;69.80;;;;;;4224846;28;20648;-52
2021/06/22 03:26:06;;;;;;;0.28;0.28;;;19.70;69.90;;;;;;4224065;28;20044;-54
2021/06/22 03:28:29;;;;;;;0.13;0.13;;;19.70;69.90;;;;;;4208232;28;20059;-51
2021/06/22 03:31:09;;;;;;;0.00;0.00;;;19.70;69.90;;;;;;4211528;28;20046;-47
2021/06/22 03:33:31;;;;;;;0.00;0.00;;;19.70;70.30;;;;;;4222479;28;20062;-52
2021/06/22 03:35:55;;;;;;;0.00;0.00;;;19.70;70.10;;;;;;4222839;28;20130;-51
2021/06/22 03:38:17;;;;;;;0.00;0.00;;;19.70;70.00;;;;;;4224798;28;20121;-52
2021/06/22 03:40:39;;;;;;;0.05;0.05;;;19.70;70.00;;;;;;4224581;28;20059;-52
2021/06/22 03:43:01;;;;;;;0.00;0.00;;;19.70;70.00;;;;;;4224788;28;20093;-52
2021/06/22 03:45:27;;;;;;;0.00;0.00;;;19.70;70.00;;;;;;4223147;28;20512;-52
2021/06/22 03:47:50;;;;;;;1.35;1.25;;;19.70;70.00;;;;;;4224369;28;20083;-54
2021/06/22 03:50:13;;;;;;;1.10;0.80;;;19.70;69.90;;;;;;4224637;28;20096;-52
2021/06/22 03:52:36;;;;;;;0.00;0.00;;;19.70;69.90;;;;;;4222625;28;20078;-51
2021/06/22 03:54:59;;;;;;;0.20;0.20;;;19.70;70.70;;;;;;4224440;28;20554;-52
2021/06/22 03:57:22;;;;;;;0.00;0.00;;;19.70;69.80;;;;;;4224435;28;20448;-52
2021/06/22 04:00:05;;;;;;;0.40;0.40;;;19.70;69.80;;;;;;4222853;28;20044;-53
2021/06/22 04:02:38;;;;;;;0.32;0.32;;;19.70;69.70;;;;;;4218770;28;20475;-52
2021/06/22 04:04:59;;;;;;;0.00;0.00;;;19.70;69.70;;;;;;4224742;28;20064;-52
2021/06/22 04:07:36;;;;;;;0.43;0.43;;;19.70;69.70;;;;;;4223163;28;20061;-52
2021/06/22 04:10:00;;;;;;;0.00;0.00;;;19.70;69.60;;;;;;4223226;28;20058;-48
2021/06/22 04:12:23;;;;;;;0.05;0.05;;;19.70;69.50;;;;;;4223438;28;20051;-52
2021/06/22 04:14:46;;;;;;;0.00;0.00;;;19.70;69.60;;;;;;4227812;27;20055;-49
2021/06/22 04:17:07;;;;;;;0.10;0.10;;;19.70;70.40;;;;;;4227522;27;20039;-51
2021/06/22 04:19:31;;;;;;;0.00;0.00;;;19.70;69.50;;;;;;4227880;27;20053;-49
2021/06/22 04:21:56;;;;;;;0.00;0.00;;;19.70;69.60;;;;;;4226639;28;20479;-53
2021/06/22 04:24:39;;;;;;;0.00;0.00;;;19.70;69.50;;;;;;4227594;27;20047;-49
2021/06/22 04:27:02;;;;;;;0.10;0.08;;;19.70;69.50;;;;;;4227416;27;20118;-49
2021/06/22 04:29:24;;;;;;;0.10;0.10;;;19.70;69.50;;;;;;4227862;27;20554;-52
2021/06/22 04:31:46;;;;;;;0.80;0.40;;;19.70;69.60;;;;;;4226712;27;20486;-49
2021/06/22 04:34:09;;;;;;;0.70;0.70;;;19.70;69.60;;;;;;4227307;27;20055;-49
2021/06/22 04:36:31;;;;;;;0.10;0.10;;;19.70;69.60;;;;;;4227389;28;20058;-53
2021/06/22 04:38:53;;;;;;;0.90;0.90;;;19.70;69.60;;;;;;4226939;27;20040;-51
2021/06/22 04:41:16;;;;;;;0.00;0.00;;;19.70;69.60;;;;;;4227420;27;20052;-55
2021/06/22 04:43:38;;;;;;;0.00;0.00;;;19.70;69.50;;;;;;4227141;27;20127;-50
2021/06/22 04:46:01;;;;;;;0.08;0.08;;;19.70;69.50;;;;;;4227125;28;20395;-48
2021/06/22 04:48:23;;;;;;;0.00;0.00;;;19.70;69.60;;;;;;4226847;27;20079;-52
2021/06/22 04:50:46;;;;;;;1.45;0.65;;;19.70;69.60;;;;;;4226867;27;20036;-52
2021/06/22 04:53:08;;;;;;;0.20;0.20;;;19.70;69.50;;;;;;4219666;27;20515;-52
2021/06/22 04:55:30;;;;;;;0.45;0.45;;;19.70;69.60;;;;;;4227532;27;20498;-54
2021/06/22 04:57:57;;;;;;;0.10;0.10;;;19.70;69.60;;;;;;4227127;27;20064;-53
2021/06/22 05:00:20;;;;;;;3.00;1.10;;;19.70;69.60;;;;;;4227276;27;20092;-51
2021/06/22 05:02:43;;;;;;;1.00;0.80;;;19.70;69.50;;;;;;4226733;27;20579;-53
2021/06/22 05:05:07;;;;;;;0.00;0.00;;;19.70;69.40;;;;;;4227247;27;20046;-48
2021/06/22 05:07:29;;;;;;;1.27;1.17;;;19.70;69.30;;;;;;4227343;27;20127;-52
2021/06/22 05:09:51;;;;;;;0.10;0.10;;;19.70;69.40;;;;;;4227177;27;20497;-52
2021/06/22 05:12:13;;;;;;;0.08;0.08;;;19.70;69.50;;;;;;4220936;28;20059;-51
2021/06/22 05:14:37;;;;;;;0.00;0.00;;;19.70;69.40;;;;;;4227029;27;20075;-51
2021/06/22 05:16:59;;;;;;;0.00;0.00;;;19.80;69.30;;;;;;4226820;27;20451;-51
2021/06/22 05:19:21;;;;;;;0.15;0.15;;;19.80;69.20;;;;;;4226839;27;20138;-50
2021/06/22 05:21:43;;;;;;;0.40;0.40;;;19.90;68.90;;;;;;4226490;27;20036;-50
2021/06/22 05:24:06;;;;;;;0.25;0.25;;;19.90;69.60;;;;;;4225507;27;20393;-51
2021/06/22 05:26:29;;;;;;;0.10;0.10;;;20.20;68.50;;;;;;4226594;28;20048;-50
2021/06/22 05:28:51;;;;;;;0.22;0.22;;;20.30;67.60;;;;;;4226447;28;20549;-53
2021/06/22 05:31:15;;;;;;;0.05;0.05;;;20.50;68.00;;;;;;4225758;27;20039;-52
2021/06/22 05:33:37;;;;;;;0.15;0.15;;;20.70;66.50;;;;;;4226653;27;20043;-52
2021/06/22 05:35:59;;;;;;;0.32;0.32;;;20.80;65.80;;;;;;4226898;28;20498;-49
2021/06/22 05:38:22;;;;;;;0.85;0.85;;;20.80;65.20;;;;;;4225805;28;20051;-51
2021/06/22 05:40:44;;;;;;;0.05;0.05;;;20.80;65.30;;;;;;4224494;27;20634;-48
2021/06/22 05:43:07;;;;;;;0.03;0.03;;;20.80;65.10;;;;;;4224700;28;20382;-50
2021/06/22 05:45:29;;;;;;;0.52;0.52;;;20.90;64.90;;;;;;4226739;27;20051;-53
2021/06/22 05:47:52;;;;;;;0.20;0.20;;;20.90;64.70;;;;;;4209652;28;20517;-49
2021/06/22 05:50:14;;;;;;;0.20;0.20;;;20.90;64.80;;;;;;4209396;28;20536;-53
2021/06/22 05:52:37;;;;;;;0.45;0.45;;;20.80;64.90;;;;;;4209518;28;20127;-50
2021/06/22 05:54:59;;;;;;;0.00;0.00;;;20.70;65.10;;;;;;4215687;27;20137;-51
2021/06/22 05:57:21;;;;;;;0.00;0.00;;;20.60;65.40;;;;;;4226087;28;20047;-50
2021/06/22 05:59:43;;;;;;;0.10;0.10;;;20.50;65.70;;;;;;4225993;27;20187;-51
2021/06/22 06:02:06;;;;;;;0.22;0.22;;;20.40;66.00;;;;;;4225422;27;20043;-51
2021/06/22 06:04:30;;;;;;;0.98;0.98;;;20.30;66.30;;;;;;4225975;27;20051;-49
2021/06/22 06:06:52;;;;;;;0.30;0.30;;;20.30;66.60;;;;;;4224820;28;20120;-52
2021/06/22 06:09:15;;;;;;;0.10;0.10;;;20.20;66.70;;;;;;4220960;27;20394;-50
2021/06/22 06:11:37;;;;;;;0.00;0.00;;;20.20;66.90;;;;;;4225046;28;20066;-50
2021/06/22 06:13:59;;;;;;;0.10;0.10;;;20.20;67.00;;;;;;4225977;28;20054;-52
2021/06/22 06:16:21;;;;;;;1.08;1.00;;;20.10;67.10;;;;;;4223781;28;20476;-53
2021/06/22 06:18:44;;;;;;;0.17;0.17;;;20.10;67.20;;;;;;4225180;27;20048;-50
2021/06/22 06:21:07;;;;;;;0.32;0.32;;;20.20;67.20;;;;;;4225391;28;20055;-51
2021/06/22 06:23:32;;;;;;;0.20;0.20;;;20.10;67.10;;;;;;4225443;27;20591;-50
2021/06/22 06:25:54;;;;;;;0.40;0.40;;;20.10;67.20;;;;;;4225948;27;20043;-50
2021/06/22 06:28:18;;;;;;;0.00;0.00;;;20.20;67.20;;;;;;4225408;27;20079;-50
2021/06/22 06:30:41;;;;;;;0.00;0.00;;;20.20;67.10;;;;;;4225407;27;20062;-55
2021/06/22 06:33:03;;;;;;;0.10;0.10;;;20.20;67.00;;;;;;4225796;27;20048;-50
2021/06/22 06:35:26;;;;;;;4.07;1.65;;;20.20;67.10;;;;;;4224672;28;20055;-50
2021/06/22 06:37:50;;;;;;;0.00;0.00;;;20.20;67.10;;;;;;4225247;28;20040;-51
2021/06/22 06:40:12;;;;;;;0.08;0.08;;;20.20;67.10;;;;;;4225125;28;20040;-52
2021/06/22 06:42:35;;;;;;;0.00;0.00;;;20.20;67.00;;;;;;4225305;27;20047;-52
2021/06/22 06:44:57;;;;;;;0.65;0.65;;;20.30;66.90;;;;;;4225258;28;20505;-51
2021/06/22 06:47:19;;;;;;;0.00;0.00;;;20.40;66.60;;;;;;4224438;27;20130;-52
2021/06/22 06:49:41;;;;;;;0.17;0.17;;;20.50;66.20;;;;;;4224080;28;20055;-51
2021/06/22 06:52:05;;;;;;;0.95;0.95;;;20.60;65.80;;;;;;4224824;27;20051;-49
2021/06/22 06:54:28;;;;;;;16.88;2.95;;;20.70;65.50;;;;;;4225392;27;20554;-50
2021/06/22 06:56:50;;;;;;;0.25;0.25;;;20.80;65.10;;;;;;4225126;28;20421;-51
2021/06/22 06:59:12;;;;;;;0.17;0.17;;;20.90;64.90;;;;;;4225434;27;20511;-53
2021/06/22 07:01:34;;;;;;;0.03;0.03;;;20.90;64.60;;;;;;4224613;27;20117;-50
2021/06/22 07:03:56;;;;;;;0.10;0.10;;;21.00;64.40;;;;;;4225096;27;20054;-50
2021/06/22 07:06:18;;;;;;;3.95;1.13;;;21.00;64.20;;;;;;4224834;28;20508;-52
2021/06/22 07:08:41;;;;;;;0.25;0.25;;;21.00;64.30;;;;;;4225242;28;20062;-54
2021/06/22 07:11:05;;;;;;;0.30;0.30;;;20.90;64.40;;;;;;4224732;28;20793;-51
2021/06/22 07:13:27;;;;;;;0.28;0.28;;;20.90;64.50;;;;;;4224750;27;20063;-49
2021/06/22 07:15:49;;;;;;;0.00;0.00;;;20.90;64.40;;;;;;4224633;28;20063;-48
2021/06/22 07:18:11;;;;;;;0.10;0.10;;;20.90;64.10;;;;;;4224261;28;20515;-49
2021/06/22 07:20:35;;;;;;;0.75;0.73;;;20.90;64.20;;;;;;4224738;27;20047;-52
2021/06/22 07:22:57;;;;;;;0.00;0.00;;;21.00;64.20;;;;;;4224818;27;20050;-47
2021/06/22 07:25:20;;;;;;;0.30;0.30;;;21.00;63.70;;;;;;4224684;28;20120;-52
2021/06/22 07:27:45;;;;;;;0.00;0.00;;;21.10;63.50;;;;;;4224644;28;20067;-49
2021/06/22 07:30:08;;;;;;;0.00;0.00;;;21.10;63.10;;;;;;4224149;28;20048;-50
2021/06/22 07:32:30;;;;;;;0.20;0.20;;;21.10;62.90;;;;;;4207580;28;20129;-53
2021/06/22 07:34:53;;;;;;;0.43;0.43;;;21.10;62.90;;;;;;4207739;28;20044;-51
2021/06/22 07:37:15;;;;;;;1.27;1.20;;;21.00;62.90;;;;;;4207626;28;20055;-51
2021/06/22 07:39:37;;;;;;;0.10;0.10;;;21.00;63.00;;;;;;4220480;28;20047;-51
2021/06/22 07:42:00;;;;;;;0.00;0.00;;;20.90;63.00;;;;;;4224869;28;20050;-51
2021/06/22 07:44:23;;;;;;;0.00;0.00;;;20.90;63.20;;;;;;4223135;28;20040;-50
2021/06/22 07:46:45;;;;;;;0.00;0.00;;;20.90;63.20;;;;;;4224156;28;20054;-55
2021/06/22 07:49:08;;;;;;;0.00;0.00;;;20.90;63.20;;;;;;4222425;28;20043;-49
2021/06/22 07:51:30;;;;;;;0.00;0.00;;;20.80;63.10;;;;;;4224275;28;20459;-54
2021/06/22 07:53:52;;;;;;;0.15;0.13;;;20.80;63.10;;;;;;4224292;28;20147;-51
2021/06/22 07:56:14;;;;;;;0.17;0.17;;;20.80;63.20;;;;;;4223592;28;20933;-50
2021/06/22 07:58:36;;;;;;;0.00;0.00;;;20.70;63.40;;;;;;4223539;28;20406;-51
2021/06/22 08:00:59;;;;;;;0.20;0.20;;;20.70;63.40;;;;;;4223148;28;20130;-52
2021/06/22 08:03:24;;;;;;;0.52;0.52;;;20.60;63.20;;;;;;4222202;28;20043;-55
2021/06/22 08:05:48;;;;;;;0.28;0.28;;;20.60;63.10;;;;;;4224157;28;20093;-54
2021/06/22 08:08:12;;;;;;;0.10;0.10;;;20.60;63.10;;;;;;4207899;28;20080;-54
2021/06/22 08:10:35;;;;;;;0.03;0.03;;;20.60;62.90;;;;;;4222593;28;20094;-49
2021/06/22 08:12:59;;;;;;;0.00;0.00;;;20.60;62.80;;;;;;4224263;28;20051;-54
2021/06/22 08:15:22;;;;;;;0.00;0.00;;;20.60;62.80;;;;;;4223737;28;20039;-54
2021/06/22 08:17:46;;;;;;;0.00;0.00;;;20.60;62.80;;;;;;4224652;28;20050;-54
2021/06/22 08:20:10;;;;;;;0.00;0.00;;;20.60;62.80;;;;;;4224866;28;20563;-55
2021/06/22 08:22:32;;;;;;;0.00;0.00;;;20.60;62.70;;;;;;4224575;28;20044;-54
2021/06/22 08:24:54;;;;;;;0.00;0.00;;;20.50;62.70;;;;;;4224787;28;20071;-49
2021/06/22 08:27:17;;;;;;;0.00;0.00;;;20.60;62.80;;;;;;4223638;28;20096;-48
2021/06/22 08:29:40;;;;;;;0.00;0.00;;;20.60;62.60;;;;;;4224388;28;20078;-49
2021/06/22 08:32:03;;;;;;;0.45;0.45;;;20.60;63.50;;;;;;4223469;28;20057;-50
2021/06/22 08:34:28;;;;;;;0.10;0.10;;;20.60;62.60;;;;;;4223877;28;20044;-50
2021/06/22 08:36:50;;;;;;;0.10;0.10;;;20.60;62.60;;;;;;4224126;28;21197;-50
2021/06/22 08:39:12;;;;;;;0.00;0.00;;;20.60;62.60;;;;;;4224707;28;20043;-52
2021/06/22 08:41:36;;;;;;;0.00;0.00;;;20.50;62.60;;;;;;4222876;28;20121;-53
2021/06/22 08:44:00;;;;;;;0.00;0.00;;;20.50;63.60;;;;;;4223978;28;20076;-53
2021/06/22 08:46:23;;;;;;;1.05;1.02;;;20.50;62.50;;;;;;4223281;28;20047;-52
2021/06/22 08:48:45;;;;;;;0.00;0.00;;;20.50;62.50;;;;;;4223443;28;20044;-53
2021/06/22 08:51:24;;;;;;;0.22;0.22;;;20.50;62.50;;;;;;4223101;28;20071;-52
2021/06/22 08:53:47;;;;;;;0.00;0.00;;;20.50;62.50;;;;;;4223679;28;20051;-51
2021/06/22 08:56:09;;;;;;;0.00;0.00;;;20.50;62.40;;;;;;4223887;28;20101;-50
2021/06/22 08:58:31;;;;;;;0.10;0.10;;;20.50;62.40;;;;;;4222884;28;20424;-49
2021/06/22 09:00:54;;;;;;;0.00;0.00;;;20.50;62.50;;;;;;4226898;27;20605;-53
2021/06/22 09:03:22;;;;;;;0.75;0.35;;;20.40;62.50;;;;;;4226971;27;20037;-51
2021/06/22 09:05:46;;;;;;;0.10;0.10;;;20.40;62.50;;;;;;4226519;27;20462;-49
2021/06/22 09:08:20;;;;;;;0.00;0.00;;;20.40;62.40;;;;;;4226348;27;20055;-52
2021/06/22 09:10:42;;;;;;;0.52;0.52;;;20.40;62.40;;;;;;4225016;27;20047;-52
2021/06/22 09:13:13;;;;;;;0.10;0.10;;;20.40;62.20;;;;;;4225717;27;20039;-52
2021/06/22 09:15:40;;;;;;;0.20;0.20;;;20.50;62.10;;;;;;4225859;27;20095;-48
2021/06/22 09:18:02;;;;;;;0.00;0.00;;;20.50;61.90;;;;;;4226620;28;20097;-52
2021/06/22 09:20:37;;;;;;;0.17;0.17;;;20.50;61.90;;;;;;4209782;28;20066;-52
2021/06/22 09:23:05;;;;;;;0.30;0.30;;;20.40;61.80;;;;;;4209661;28;20478;-50
2021/06/22 09:25:28;;;;;;;0.65;0.65;;;20.40;61.90;;;;;;4209972;28;20043;-50
2021/06/22 09:27:51;;;;;;;0.00;0.00;;;20.40;61.90;;;;;;4214589;28;20537;-54
2021/06/22 09:30:14;;;;;;;2.55;1.00;;;20.40;62.00;;;;;;4225204;28;20055;-51
2021/06/22 09:32:36;;;;;;;0.00;0.00;;;20.40;62.00;;;;;;4226731;27;20054;-54
2021/06/22 09:35:17;;;;;;;0.00;0.00;;;20.40;62.90;;;;;;4226633;28;20044;-52
2021/06/22 09:37:50;;;;;;;0.00;0.00;;;20.40;62.10;;;;;;4226493;27;20043;-52
2021/06/22 09:40:25;;;;;;;0.00;0.00;;;20.40;62.20;;;;;;4225978;27;20485;-49
2021/06/22 09:42:54;;;;;;;0.00;0.00;;;20.30;62.00;;;;;;4226170;28;20051;-52
2021/06/22 09:45:21;;;;;;;0.25;0.25;;;20.40;62.00;;;;;;4225690;27;20059;-51
2021/06/22 09:47:46;;;;;;;0.38;0.38;;;20.40;61.90;;;;;;4209267;28;20048;-49
2021/06/22 09:50:38;;;;;;;0.15;0.15;;;20.40;61.70;;;;;;4209550;28;20063;-52
2021/06/22 09:53:25;;;;;;;0.00;0.00;;;20.40;61.80;;;;;;4221078;27;20047;-53
2021/06/22 09:55:47;;;;;;;0.60;0.60;;;20.40;62.00;;;;;;4224788;28;20532;-54
2021/06/22 09:58:12;;;;;;;0.65;0.50;;;20.40;62.40;;;;;;4226247;27;20059;-51
2021/06/22 10:00:38;;;;;;;0.30;0.30;;;20.50;62.50;;;;;;4225829;28;20067;-50
2021/06/22 10:03:00;;;;;;;0.00;0.00;;;20.50;63.20;;;;;;4225886;28;20130;-54
2021/06/22 10:05:22;;;;;;;0.08;0.08;;;20.50;62.10;;;;;;4225602;27;20039;-49
2021/06/22 10:07:45;;;;;;;0.75;0.30;;;20.60;62.30;;;;;;4209223;28;20138;-51
2021/06/22 10:10:08;;;;;;;0.00;0.00;;;20.60;62.30;;;;;;4211345;28;20497;-53
2021/06/22 10:12:32;;;;;;;0.75;0.75;;;20.70;62.20;;;;;;4226169;27;20048;-48
2021/06/22 10:14:57;;;;;;;0.00;0.00;;;20.70;62.00;;;;;;4225735;28;20036;-50
2021/06/22 10:17:21;;;;;;;0.00;0.00;;;20.80;61.80;;;;;;4225652;27;20055;-52
2021/06/22 10:19:45;;;;;;;0.32;0.32;;;20.80;61.50;;;;;;4225581;27;20055;-55
2021/06/22 10:22:08;;;;;;;0.10;0.10;;;20.80;61.50;;;;;;4225461;27;20085;-52
2021/06/22 10:24:31;;;;;;;0.10;0.10;;;20.70;61.50;;;;;;4225606;27;20047;-53
2021/06/22 10:26:55;;;;;;;0.20;0.20;;;20.70;61.60;;;;;;4225329;27;20035;-48
2021/06/22 10:29:19;;;;;;;0.00;0.00;;;20.70;61.60;;;;;;4225144;27;20039;-47
2021/06/22 10:31:43;;;;;;;0.03;0.03;;;20.70;61.60;;;;;;4225160;27;20174;-49
2021/06/22 10:34:05;;;;;;;0.47;0.47;;;20.60;61.50;;;;;;4225671;28;20047;-51
2021/06/22 10:36:34;;;;;;;1.27;1.17;;;20.60;61.50;;;;;;4225369;27;20056;-54
2021/06/22 10:39:01;;;;;;;0.00;0.00;;;20.60;61.50;;;;;;4224764;27;20143;-51
2021/06/22 10:41:25;;;;;;;0.00;0.00;;;20.60;61.50;;;;;;4225051;27;20047;-51
2021/06/22 10:43:48;;;;;;;0.45;0.45;;;20.60;61.40;;;;;;4224610;28;20771;-55
2021/06/22 10:46:15;;;;;;;0.10;0.10;;;20.60;61.40;;;;;;4224494;27;20043;-51
2021/06/22 10:48:44;;;;;;;0.00;0.00;;;20.60;61.30;;;;;;4225324;27;20523;-56
2021/06/22 10:51:39;;;;;;;0.10;0.10;;;20.60;61.30;;;;;;4225261;28;20135;-51
2021/06/22 10:54:01;;;;;;;0.00;0.00;;;20.60;61.20;;;;;;4224925;27;20124;-55
2021/06/22 10:56:26;;;;;;;0.75;0.75;;;20.60;61.00;;;;;;4208298;28;20494;-53
2021/06/22 10:59:22;;;;;;;0.15;0.15;;;20.60;61.00;;;;;;4208283;28;20456;-55
2021/06/22 11:02:01;;;;;;;0.43;0.43;;;20.60;60.90;;;;;;4207984;28;20047;-52
2021/06/22 11:04:25;;;;;;;0.00;0.00;;;20.60;60.90;;;;;;4209698;27;20538;-53
2021/06/22 11:07:00;;;;;;;0.20;0.20;;;20.60;61.00;;;;;;4225231;27;20405;-54
2021/06/22 11:09:23;;;;;;;0.00;0.00;;;20.60;61.00;;;;;;4225140;27;20071;-53
2021/06/22 11:11:45;;;;;;;0.00;0.00;;;20.60;61.00;;;;;;4225000;27;20147;-52
2021/06/22 11:14:09;;;;;;;0.00;0.00;;;20.60;60.90;;;;;;4224724;28;20531;-54
2021/06/22 11:16:33;;;;;;;0.88;0.88;;;20.60;60.80;;;;;;4207880;28;20464;-52
2021/06/22 11:19:01;;;;;;;0.28;0.28;;;20.60;60.50;;;;;;4208448;28;20059;-50
2021/06/22 11:21:26;;;;;;;0.00;0.00;;;20.60;60.50;;;;;;4207759;28;20059;-54
2021/06/22 11:24:00;;;;;;;0.00;0.00;;;20.60;60.50;;;;;;4221210;28;20052;-53
2021/06/22 11:26:24;;;;;;;0.00;0.00;;;20.60;60.50;;;;;;4224661;27;20044;-54
2021/06/22 11:28:55;;;;;;;0.00;0.00;;;20.60;60.50;;;;;;4224948;27;20047;-52
2021/06/22 11:31:33;;;;;;;0.73;0.73;;;20.60;60.50;;;;;;4207478;28;20085;-54
2021/06/22 11:34:05;;;;;;;0.00;0.00;;;20.60;60.20;;;;;;4207967;28;20063;-52
2021/06/22 11:36:34;;;;;;;0.30;0.30;;;20.60;60.90;;;;;;4207476;28;20047;-50
2021/06/22 11:39:17;;;;;;;0.73;0.63;;;20.60;60.20;;;;;;4221603;28;20054;-49
2021/06/22 11:41:40;;;;;;;0.85;0.45;;;20.60;61.20;;;;;;4219071;28;20051;-55
2021/06/22 11:44:27;;;;;;;2.33;0.77;;;20.60;60.60;;;;;;4224315;28;20051;-52
2021/06/22 11:46:49;;;;;;;0.00;0.00;;;20.60;60.90;;;;;;4224916;28;20047;-53
2021/06/22 11:49:11;;;;;;;0.08;0.08;;;20.60;60.50;;;;;;4224376;28;20052;-54
2021/06/22 11:52:06;;;;;;;0.00;0.00;;;20.60;60.60;;;;;;4224513;28;20055;-54
2021/06/22 11:54:59;;;;;;;0.00;0.00;;;20.60;60.50;;;;;;4224540;28;20051;-52
2021/06/22 11:57:25;;;;;;;0.00;0.00;;;20.50;60.40;;;;;;4224130;28;20827;-53
2021/06/22 11:59:48;;;;;;;0.55;0.47;;;20.60;60.30;;;;;;4216811;28;20092;-54
2021/06/22 12:02:11;;;;;;;0.00;0.00;;;20.60;60.30;;;;;;4224161;28;20097;-53
2021/06/22 12:04:33;;;;;;;0.10;0.10;;;20.60;60.30;;;;;;4224253;28;20070;-55
2021/06/22 12:06:56;;;;;;;0.00;0.00;;;20.60;60.60;;;;;;4224595;28;20545;-51
2021/06/22 12:09:20;;;;;;;0.00;0.00;;;20.60;60.50;;;;;;4222992;28;20059;-51
2021/06/22 12:11:44;;;;;;;17.63;1.85;;;20.60;60.40;;;;;;4221516;28;20142;-51
2021/06/22 12:14:06;;;;;;;0.35;0.15;;;20.60;60.20;;;;;;4216520;28;20470;-55
2021/06/22 12:16:32;;;;;;;1.25;1.25;;;20.70;60.10;;;;;;4223936;28;20059;-53
2021/06/22 12:18:56;;;;;;;0.15;0.15;;;20.70;59.90;;;;;;4220921;28;20048;-54
2021/06/22 12:21:19;;;;;;;0.13;0.13;;;20.70;59.90;;;;;;4216983;28;20490;-55
2021/06/22 12:23:42;;;;;;;0.98;0.98;;;20.70;59.80;;;;;;4224331;28;20078;-55
2021/06/22 12:26:05;;;;;;;0.30;0.30;;;20.70;59.70;;;;;;4206687;28;20044;-54
2021/06/22 12:28:33;;;;;;;0.00;0.00;;;20.70;59.50;;;;;;4207278;28;20066;-54
2021/06/22 12:30:57;;;;;;;1.75;1.65;;;20.70;59.30;;;;;;4206748;28;20059;-52
2021/06/22 12:33:21;;;;;;;0.00;0.00;;;20.70;59.20;;;;;;4207411;28;20047;-53
2021/06/22 12:35:46;;;;;;;0.05;0.05;;;20.60;59.00;;;;;;4210522;28;20091;-54